Arrey, NM

12:33 AM MDT on July 31, 2014 (GMT -0600)
Truth Or Consequences Municipal (KTCS) Elev 4859 ft | 33.24 °N, 107.27 °W | Change Station
Active Advisory: Flash Flood Watch

Current weather conditions updated 40 minutes ago

Light Rain
Light Rain
71 °F
Feels Like 71 °F
N
0
Wind Variable Wind from North

Today is forecast to be nearly the same temperature as yesterday. Afternoon thunderstorms.

Today
High -- | Low -- °F
--% Chance of Precip.
Yesterday
High -- | Low -- °F
Precip. -- in
6:22 AM 8:08 PM
Waxing Crescent, 16% visible
Pressure 29.89 in
Visibility -9999.0 miles
Clouds Overcast 10000 ft
Dew Point 61 °F
Humidity 70%
Rainfall 0.11 in
Snow Depth Not available.
UV 0 out of 12
Pollen 4.30 out of 12
Air Quality Not available.
Flu Activity Not available.
METAR KTCS 310553Z AUTO 00000KT -RA OVC100 22/16 A3015 RMK AO2 RAB00 SLP120 P0000 60011 T02170161 10322 20217 53017 TSNO $

More Conditions Fewer Conditions

Pressure 29.89 in
Visibility -9999.0 miles
Clouds Overcast 10000 ft
Dew Point 61 °F
Humidity 70%
Rainfall 0.11 in
Snow Depth Not available.
UV 0 out of 12
Pollen 4.30 out of 12
Air Quality Not available.
Flu Activity Not available.
METAR KTCS 310553Z AUTO 00000KT -RA OVC100 22/16 A3015 RMK AO2 RAB00 SLP120 P0000 60011 T02170161 10322 20217 53017 TSNO $

More Conditions Fewer Conditions

10-Day Weather Forecast

Almanac

Astronomy

Jul. 31, 2014 Rise Set
Actual Time 6:22 AM MDT 8:08 PM MDT
Civil Twilight 5:55 AM MDT 8:35 PM MDT
Nautical Twilight 5:23 AM MDT 9:08 PM MDT
Astronomical Twilight 4:49 AM MDT 9:42 PM MDT
Moon 10:35 AM MDT 10:41 PM MDT
Length of Visible Light 14h 39m
Length of Day
13h 45m
Tomorrow will be 1m 29s shorter.
Waxing Crescent, 16% of the Moon is Illuminated
Today
Waxing Crescent
Aug 3
First Quarter
Aug 10
Full
Aug 17
Last Quarter
Aug 25
New

Today's Extremes

State Highs State Lows

Community

WunderPhotos

Upload Photos

1,739,251 photos uploaded!

Nearby

Snow Depth

Station Depth Elevation
McKnight Cabin 0 in 9240 ft
Silver Creek Divide 2 in 9000 ft
Sierra Blanca 1 in 10280 ft
Santa Fe 1 in 11445 ft
Wesner Springs 2 in 11120 ft

Earthquake Activity

City Distance Mag. Time & Date
No recent earthquake activity has been reported nearby.
Minimum magnitude displayed is 2.5.

Coastal Water Temperatures

Place Temperature
No Stations Reporting

Nearby Weather Stations

There are no personal weather stations in this area.